Latest Weather Observations for Nambour

IDQ60901

Issued at 8:21 pm EST Friday 27 March 2015 (issued every 10 minutes, with the page automatically refreshed every 10 minutes)

About weather observations | Map of Brisbane area stations | Latest observations for Brisbane area | Other Formats
Station Details ID: 040988 Name: NAMBOUR DAFF - HILLSIDE Lat: -26.64 Lon: 152.94 Height: 53.24 m
Data from the previous 72 hours. | See also: Recent months at Nambour
Date/Time
EST
Tmp

°C
App
Tmp
°C
Dew
Point
°C
Rel
Hum
%
Delta-T

°C
Wind Press
QNH
hPa
Press
MSL
hPa
Rain
since
9 am
mm
Dir
 
Spd
km/h
Gust
km/h
Spd
kts
Gust
kts
27/08:00pm 24.8 29.2 21.3 81 2.3 CALM 0 0 0 0 1018.9 1018.7 0.0
27/07:30pm 24.9 29.2 21.2 80 2.4 CALM 0 0 0 0 1018.7 1018.5 0.0
27/07:00pm 25.2 29.1 21.1 78 2.7 ESE 2 4 1 2 1018.5 1018.3 0.0
27/06:30pm 25.4 28.6 21.3 78 2.7 ESE 6 9 3 5 1018.0 1017.8 0.0
27/06:00pm 25.7 29.1 21.6 78 2.7 ESE 6 11 3 6 1017.5 1017.3 0.0
27/05:30pm 26.2 29.3 21.4 75 3.2 ESE 7 13 4 7 1017.1 1016.9 0.0
27/05:00pm 27.2 30.4 20.5 67 4.4 SE 4 7 2 4 1016.7 1016.5 0.0
27/04:30pm 27.9 30.5 21.2 67 4.5 ESE 9 20 5 11 1016.2 1015.9 0.0
27/04:00pm 29.4 31.2 21.1 61 5.5 ENE 13 20 7 11 1015.7 1015.4 0.0
27/03:30pm 31.0 31.7 14.6 37 10.0 ESE 4 7 2 4 1015.6 1015.3 0.0
27/03:00pm 30.6 32.4 17.3 45 8.4 ESE 4 7 2 4 1015.6 1015.3 0.0
27/02:30pm 31.0 33.3 17.7 45 8.5 SE 2 7 1 4 1015.7 1015.4 0.0
27/02:00pm 29.9 31.7 18.3 49 7.5 ESE 6 9 3 5 1015.9 1015.6 0.0
27/01:30pm 30.6 33.2 18.3 47 7.9 SSE 2 7 1 4 1016.4 1016.1 0.0
27/01:00pm 29.9 33.7 20.2 56 6.4 CALM 0 0 0 0 1016.7 1016.5 0.0
27/12:30pm 30.1 33.2 19.5 53 6.9 SSW 2 4 1 2 1017.0 1016.8 0.0
27/12:00pm 30.8 32.7 18.5 47 7.9 NW 6 13 3 7 1017.4 1017.2 0.0
27/11:30am 30.7 32.4 18.4 47 7.9 WNW 7 13 4 7 1017.9 1017.7 0.0
27/11:00am 30.1 31.4 18.5 49 7.5 WNW 9 15 5 8 1018.5 1018.3 0.0
27/10:30am 29.5 31.3 19.5 55 6.5 WNW 9 15 5 8 1018.8 1018.6 0.0
27/10:00am 29.2 30.8 19.2 54 6.5 NW 9 20 5 11 1019.0 1018.8 0.0
27/09:30am 28.9 30.6 20.1 59 5.8 NW 11 19 6 10 1019.1 1018.9 0.0
27/09:00am 27.7 30.2 21.0 67 4.4 NNW 9 19 5 10 1019.0 1018.8 0.0
27/08:30am 26.5 29.3 20.8 71 3.8 N 7 9 4 5 1019.1 1018.9 0.0
27/08:00am 26.1 29.1 20.9 73 3.4 N 6 9 3 5 1019.0 1018.8 0.0
27/07:30am 25.7 28.8 21.4 77 2.8 N 7 11 4 6 1018.8 1018.6 0.0
27/07:00am 25.2 28.7 21.1 78 2.7 N 4 9 2 5 1018.4 1018.2 0.0
27/06:30am 24.1 28.2 21.6 86 1.7 NNW 2 7 1 4 1018.1 1017.9 0.0
27/06:00am 23.6 27.5 21.1 86 1.6 NW 2 7 1 4 1017.7 1017.5 0.0
27/05:30am 23.8 27.0 21.3 86 1.6 NNW 6 9 3 5 1017.5 1017.3 0.0
27/05:00am 23.7 27.7 21.4 87 1.5 NNW 2 6 1 3 1017.3 1017.1 0.0
27/04:30am 23.7 27.5 21.6 88 1.4 NNW 4 7 2 4 1017.2 1017.0 0.0
27/04:00am 23.4 27.9 21.5 89 1.3 CALM 0 2 0 1 1017.0 1016.8 0.0
27/03:30am 23.5 28.0 21.6 89 1.3 CALM 0 0 0 0 1016.8 1016.6 0.0
27/03:00am 23.3 27.7 21.4 89 1.3 CALM 0 0 0 0 1016.9 1016.7 0.0
27/02:30am 23.5 28.1 21.8 90 1.1 CALM 0 0 0 0 1017.0 1016.8 0.0
27/02:00am 23.7 28.2 21.6 88 1.4 CALM 0 0 0 0 1017.1 1016.9 0.0
27/01:30am 23.8 28.1 21.9 89 1.3 N 2 4 1 2 1017.2 1017.0 0.0
27/01:00am 23.4 28.0 21.8 91 1.1 CALM 0 2 0 1 1017.7 1017.5 0.0
27/12:30am 23.4 28.0 21.8 91 1.1 CALM 0 2 0 1 1017.8 1017.6 0.0
27/12:00am 24.0 28.3 21.9 88 1.4 N 2 4 1 2 1017.9 1017.7 0.0
 
Date/Time
EST
Tmp

°C
App
Tmp
°C
Dew
Point
°C
Rel
Hum
%
Delta-T

°C
Wind Press
QNH
hPa
Press
MSL
hPa
Rain
since
9 am
mm
Dir
 
Spd
km/h
Gust
km/h
Spd
kts
Gust
kts
26/11:30pm 24.0 28.2 21.7 87 1.5 NNE 2 4 1 2 1018.2 1018.0 0.0
26/11:00pm 24.1 28.5 21.4 85 1.8 CALM 0 0 0 0 1018.3 1018.1 0.0
26/10:30pm 24.4 28.0 21.3 83 2.0 NNW 4 6 2 3 1018.3 1018.1 0.0
26/10:00pm 24.6 29.0 21.3 82 2.2 CALM 0 2 0 1 1018.5 1018.3 0.0
26/09:30pm 24.7 28.7 21.4 82 2.2 N 2 4 1 2 1018.6 1018.4 0.0
26/09:00pm 24.4 28.6 21.7 85 1.8 N 2 6 1 3 1018.5 1018.3 0.0
26/08:30pm 24.4 29.1 21.9 86 1.7 CALM 0 4 0 2 1018.3 1018.1 0.0
26/08:00pm 24.7 29.1 21.4 82 2.2 CALM 0 2 0 1 1018.2 1018.0 0.0
26/07:30pm 24.7 28.3 21.2 81 2.3 NW 4 6 2 3 1017.7 1017.5 0.0
26/07:00pm 25.4 29.8 21.3 78 2.7 CALM 0 2 0 1 1017.5 1017.3 0.0
26/06:30pm 26.0 29.3 21.4 76 3.1 NNE 6 7 3 4 1017.1 1016.9 0.0
26/06:00pm 26.2 29.8 21.2 74 3.3 NNE 4 7 2 4 1016.9 1016.7 0.0
26/05:30pm 26.8 29.6 20.9 70 3.9 NE 7 11 4 6 1016.5 1016.2 0.0
26/05:00pm 27.8 29.7 20.6 65 4.8 NE 11 17 6 9 1015.5 1015.2 0.0
26/04:30pm 28.7 31.3 21.2 64 5.0 NE 9 19 5 10 1015.1 1014.8 0.0
26/04:00pm 29.0 30.4 21.0 62 5.3 ENE 15 22 8 12 1015.1 1014.8 0.0
26/03:30pm 29.8 32.6 20.9 59 5.9 NNE 7 13 4 7 1015.3 1015.0 0.0
26/03:00pm 30.5 32.4 19.8 52 7.0 N 9 13 5 7 1015.2 1014.9 0.0
26/02:30pm 31.0 33.4 20.0 52 7.3 N 7 13 4 7 1015.6 1015.3 0.0
26/02:00pm 30.7 32.9 19.7 52 7.2 N 7 11 4 6 1015.8 1015.5 0.0
26/01:30pm 30.9 33.1 20.5 54 6.9 N 9 19 5 10 1016.1 1015.8 0.0
26/01:00pm 30.7 32.8 19.4 51 7.4 NNE 7 11 4 6 1016.6 1016.3 0.0
26/12:30pm 29.9 32.2 19.9 55 6.6 NNE 7 17 4 9 1017.0 1016.8 0.0
26/12:00pm 30.1 32.0 19.8 54 6.8 N 9 15 5 8 1017.6 1017.4 0.0
26/11:30am 29.9 32.4 20.2 56 6.4 N 7 15 4 8 1018.1 1017.9 0.0
26/11:00am 29.5 32.3 20.4 58 6.0 NNE 6 11 3 6 1018.3 1018.1 0.0
26/10:30am 28.4 30.5 19.3 57 5.9 NNW 7 13 4 7 1018.7 1018.5 0.0
26/10:00am 28.7 31.4 20.2 60 5.6 NNW 6 9 3 5 1018.8 1018.6 0.0
26/09:30am 27.4 28.9 19.7 63 5.0 NNW 11 15 6 8 1018.8 1018.6 0.0
26/09:00am 27.6 30.3 21.4 69 4.1 N 9 19 5 10 1018.7 1018.5 0.0
26/08:30am 27.2 30.3 21.5 71 3.8 N 7 15 4 8 1018.6 1018.4 0.0
26/08:00am 26.1 29.5 21.7 77 2.9 NNE 6 9 3 5 1018.3 1018.1 0.0
26/07:30am 24.8 29.2 22.1 85 1.8 N 2 4 1 2 1018.5 1018.3 0.0
26/07:00am 23.6 28.2 21.7 89 1.3 CALM 0 4 0 2 1018.1 1017.9 0.0
26/06:30am 23.3 27.9 21.7 91 1.1 CALM 0 0 0 0 1017.9 1017.7 0.0
26/06:00am 22.8 27.3 21.6 93 0.8 CALM 0 0 0 0 1017.6 1017.4 0.0
26/05:30am 22.9 27.3 21.4 91 1.0 CALM 0 0 0 0 1017.3 1017.1 0.0
26/05:00am 22.9 27.3 21.4 91 1.0 CALM 0 0 0 0 1016.9 1016.7 0.0
26/04:30am 23.1 27.5 21.4 90 1.1 CALM 0 0 0 0 1016.6 1016.3 0.0
26/04:00am 23.1 27.5 21.4 90 1.1 CALM 0 0 0 0 1016.3 1016.0 0.0
26/03:30am 23.3 27.7 21.4 89 1.3 CALM 0 0 0 0 1016.2 1015.9 0.0
26/03:00am 23.4 27.4 21.3 88 1.4 NNW 2 4 1 2 1016.1 1015.8 0.0
26/02:30am 23.4 27.5 20.7 85 1.8 CALM 0 0 0 0 1016.1 1015.8 0.0
26/02:00am 23.6 27.6 20.5 83 2.0 CALM 0 4 0 2 1016.1 1015.8 0.0
26/01:30am 24.2 28.2 20.5 80 2.4 CALM 0 0 0 0 1016.2 1015.9 0.0
26/01:00am 24.4 27.6 20.5 79 2.5 ESE 4 6 2 3 1016.3 1016.0 0.0
26/12:30am 24.1 27.3 20.4 80 2.4 ENE 4 6 2 3 1016.1 1015.8 0.0
26/12:00am 24.3 28.2 20.4 79 2.5 CALM 0 2 0 1 1016.1 1015.8 0.0
 
Date/Time
EST
Tmp

°C
App
Tmp
°C
Dew
Point
°C
Rel
Hum
%
Delta-T

°C
Wind Press
QNH
hPa
Press
MSL
hPa
Rain
since
9 am
mm
Dir
 
Spd
km/h
Gust
km/h
Spd
kts
Gust
kts
25/11:30pm 24.4 28.3 20.3 78 2.7 CALM 0 2 0 1 1016.0 1015.7 0.0
25/11:00pm 24.6 27.3 20.3 77 2.8 NNW 6 7 3 4 1016.1 1015.8 0.0
25/10:30pm 24.1 28.5 21.4 85 1.8 CALM 0 0 0 0 1016.5 1016.2 0.0
25/10:00pm 24.2 28.8 21.7 86 1.7 CALM 0 0 0 0 1016.6 1016.3 0.0
25/09:30pm 24.2 29.0 22.1 88 1.4 CALM 0 4 0 2 1016.5 1016.2 0.0
25/09:00pm 24.1 28.8 22.0 88 1.4 CALM 0 0 0 0 1016.3 1016.0 0.0
25/08:30pm 24.6 29.3 21.9 85 1.8 CALM 0 0 0 0 1016.2 1015.9 0.0
25/08:00pm 25.1 29.7 21.8 82 2.2 CALM 0 2 0 1 1015.8 1015.5 0.0
25/07:30pm 25.5 29.7 21.8 80 2.5 NNW 2 6 1 3 1015.4 1015.1 0.0
25/07:00pm 25.7 29.9 21.8 79 2.6 N 2 6 1 3 1015.1 1014.8 0.0
25/06:30pm 26.2 29.5 21.8 77 2.9 NNE 7 11 4 6 1014.8 1014.5 0.0
25/06:00pm 26.7 30.1 21.7 74 3.3 NE 6 9 3 5 1014.5 1014.2 0.0
25/05:30pm 27.3 30.5 21.6 71 3.8 NNE 7 11 4 6 1014.1 1013.8 0.0
25/05:00pm 28.0 30.5 21.8 69 4.2 ENE 11 19 6 10 1013.8 1013.5 0.0
25/04:30pm 28.6 30.8 21.9 67 4.5 E 13 20 7 11 1013.4 1013.1 0.0
25/04:00pm 29.4 31.6 21.9 64 5.1 ENE 13 20 7 11 1013.2 1012.9 0.0
25/03:30pm 30.4 33.2 22.3 62 5.5 NNE 11 17 6 9 1013.1 1012.8 0.0
25/03:00pm 31.1 33.4 22.1 58 6.1 NNE 13 22 7 12 1013.0 1012.7 0.0
25/02:30pm 31.6 33.8 21.2 54 7.0 NNE 11 22 6 12 1012.9 1012.6 0.0
25/02:00pm 31.8 34.0 20.4 51 7.6 N 9 17 5 9 1013.1 1012.8 0.0
25/01:30pm 31.4 33.3 19.7 49 7.7 NNE 9 20 5 11 1013.3 1013.0 0.0
25/01:00pm 31.0 33.0 20.0 52 7.3 N 9 17 5 9 1013.7 1013.4 0.0
25/12:30pm 31.4 34.0 20.4 52 7.3 NNW 7 15 4 8 1014.1 1013.8 0.0
25/12:00pm 30.0 32.0 20.0 55 6.6 N 9 17 5 9 1014.6 1014.3 0.0
25/11:30am 30.1 32.5 20.9 57 6.1 N 9 17 5 9 1015.1 1014.8 0.0
25/11:00am 29.6 31.9 20.7 58 5.9 NNW 9 19 5 10 1015.5 1015.2 0.0
25/10:30am 28.9 31.0 20.9 62 5.3 N 11 19 6 10 1015.9 1015.6 0.0
25/10:00am 28.1 29.9 21.1 65 4.7 N 13 19 7 10 1016.1 1015.8 0.0
25/09:30am 27.3 28.8 20.6 67 4.4 NNW 13 26 7 14 1016.2 1015.9 0.0
25/09:00am 26.1 27.7 20.7 72 3.6 NNW 13 22 7 12 1016.2 1015.9 0.0
25/08:30am 25.4 26.4 20.2 73 3.4 N 15 28 8 15 1016.1 1015.8 0.0
25/08:00am 25.4 26.9 20.6 75 3.1 N 13 22 7 12 1016.0 1015.7 0.0
25/07:30am 24.1 26.3 20.4 80 2.4 NNW 9 19 5 10 1015.9 1015.6 0.0
25/07:00am 23.8 26.6 20.5 82 2.1 N 6 11 3 6 1015.7 1015.4 0.0
25/06:30am 22.4 26.0 20.5 89 1.2 NNE 2 6 1 3 1015.6 1015.3 0.0
25/06:00am 22.8 25.9 20.3 86 1.6 NNW 4 11 2 6 1015.2 1014.9 0.0
25/05:30am 22.3 25.1 20.4 89 1.2 N 6 7 3 4 1014.9 1014.6 0.0
25/05:00am 21.7 25.2 20.3 92 0.9 NNE 2 6 1 3 1014.7 1014.4 0.0
25/04:30am 22.0 25.9 20.3 90 1.1 CALM 0 0 0 0 1014.2 1013.9 0.0
25/04:00am 22.4 25.3 20.7 90 1.1 N 6 9 3 5 1013.8 1013.5 0.0
25/03:30am 21.6 24.7 20.2 92 0.9 N 4 7 2 4 1014.0 1013.7 0.0
25/03:00am 21.7 25.7 20.5 93 0.8 CALM 0 0 0 0 1014.0 1013.7 0.0
25/02:30am 21.3 24.9 19.8 91 1.0 CALM 0 0 0 0 1014.0 1013.7 0.0
25/02:00am 21.8 25.6 20.1 90 1.1 CALM 0 0 0 0 1014.0 1013.7 0.0
25/01:30am 22.1 25.3 20.4 90 1.1 NNW 4 6 2 3 1014.1 1013.8 0.0
25/01:00am 21.7 25.1 20.2 91 1.0 NE 2 6 1 3 1014.5 1014.2 0.0
25/12:30am 21.2 24.3 19.5 90 1.1 N 2 4 1 2 1014.6 1014.3 0.0
25/12:00am 21.3 24.7 19.4 89 1.2 CALM 0 2 0 1 1014.5 1014.2 0.0
 
Date/Time
EST
Tmp

°C
App
Tmp
°C
Dew
Point
°C
Rel
Hum
%
Delta-T

°C
Wind Press
QNH
hPa
Press
MSL
hPa
Rain
since
9 am
mm
Dir
 
Spd
km/h
Gust
km/h
Spd
kts
Gust
kts
24/11:30pm 22.2 25.6 20.1 88 1.4 WNW 2 6 1 3 1015.1 1014.8 0.0
24/11:00pm 21.8 25.3 19.5 87 1.5 CALM 0 0 0 0 1015.3 1015.0 0.0
24/10:30pm 22.4 26.0 20.5 89 1.2 NW 2 6 1 3 1015.4 1015.1 0.0
24/10:00pm 22.4 25.9 20.3 88 1.4 N 2 4 1 2 1015.6 1015.3 0.0
24/09:30pm 22.5 25.9 20.2 87 1.5 NNW 2 4 1 2 1016.1 1015.8 0.0
24/09:00pm 22.4 26.2 20.1 87 1.5 CALM 0 0 0 0 1016.2 1015.9 0.0
24/08:30pm 22.2 25.5 19.2 83 1.9 CALM 0 0 0 0 1016.0 1015.7 0.0

Latest Capital City Observations: Canberra | Sydney | Melbourne | Brisbane | Adelaide | Perth | Hobart | Darwin

Other Formats:

Comma delimited format used in spreadsheet applications
http://www.bom.gov.au/fwo/IDQ60901/IDQ60901.95572.axf

JavaScript Object Notation format (JSON) in row-major order
http://www.bom.gov.au/fwo/IDQ60901/IDQ60901.95572.json